Heinz Schepers — V2OM7 — position and weather

sailwx.info

Track history (hours):
 
Tides and Currents Weather Stations Pressure Air Temp Water Temp Dewpoint Dewpoint Depression Visibility Wind Speed Wind Dir Waves Ship Positions

Heinz Schepers

Last reported at 2017-Mar-22 21:32 UTC. Time now 2017-Mar-22 22:07 UTC.
Position N 39°13' E 009°04'.

Length 101 m; draft 6.1 m.

Type: Cargo ship. MMSI: 304596000.

Date/timePositionNaut miles runAvg speedWind from/ knotsBaromVisibWave heightAir tempDewpointWater temp
2017-Mar-22 21:32N 39°13' E 009°04'0 0.0
2017-Mar-22 20:32N 39°13' E 009°04'0 0.0
2017-Mar-22 19:32N 39°13' E 009°04'0 0.0
2017-Mar-22 18:32N 39°13' E 009°04'0 0.0
2017-Mar-22 17:31N 39°13' E 009°04'0 0.0
2017-Mar-22 16:31N 39°13' E 009°04'0 0.0
2017-Mar-22 15:31N 39°13' E 009°04'0 0.0
2017-Mar-22 14:31N 39°13' E 009°04'0 0.0
2017-Mar-22 13:31N 39°13' E 009°04'0 0.3
2017-Mar-22 12:33N 39°13' E 009°04'3 2.8
2017-Mar-22 11:32N 39°10' E 009°05'0 0.0
2017-Mar-22 10:32N 39°10' E 009°05'0 0.0
2017-Mar-22 09:32N 39°10' E 009°05'0 0.0
2017-Mar-22 08:31N 39°10' E 009°05'0 0.0
2017-Mar-22 07:22N 39°10' E 009°05'0 0.0
2017-Mar-22 06:31N 39°10' E 009°05'0 0.0
2017-Mar-22 05:31N 39°10' E 009°05'3 2.6
2017-Mar-22 04:33N 39°09' E 009°08'10 9.6
2017-Mar-22 03:33N 39°04' E 009°19'9 8.6
2017-Mar-22 02:32N 39°00' E 009°29'9 8.6
2017-Mar-22 01:33N 38°56' E 009°38'107 8.8
2017-Mar-21 13:26N 38°15' E 011°44'17 9.3
2017-Mar-21 11:33N 38°08' E 012°05'10 9.9
2017-Mar-21 10:33N 38°05' E 012°17'10 9.8
2017-Mar-21 09:33N 38°02' E 012°28'2 2.1
2017-Mar-21 08:24N 38°01' E 012°31'0 0.0
2017-Mar-21 07:23N 38°01' E 012°31'0 0.0
2017-Mar-21 06:26N 38°01' E 012°31'0 0.0
2017-Mar-21 05:11N 38°01' E 012°31'0 0.0
2017-Mar-21 04:26N 38°01' E 012°31'0 0.0
2017-Mar-21 03:26N 38°01' E 012°31'0 0.0
2017-Mar-21 02:26N 38°01' E 012°31'0 0.0
2017-Mar-21 01:29N 38°01' E 012°31'0 0.0
2017-Mar-21 00:29N 38°01' E 012°31'0 0.0
2017-Mar-20 23:29N 38°01' E 012°31'0 0.0
2017-Mar-20 22:29N 38°01' E 012°31'1 1.5
2017-Mar-20 21:34N 38°00' E 012°30'1010.2
2017-Mar-20 20:33N 38°05' E 012°18'1111.3
2017-Mar-20 19:33N 38°08' E 012°04'1212.0
2017-Mar-20 18:33N 38°13' E 011°50'2811.9
2017-Mar-20 16:14N 38°24' E 011°18'811.5
2017-Mar-20 15:33N 38°27' E 011°09'3511.7
2017-Mar-20 12:33N 38°40' E 010°27'1211.7
2017-Mar-20 11:30N 38°45' E 010°13'1711.8
2017-Mar-20 10:04N 38°52' E 009°53'1111.8
2017-Mar-20 09:09N 38°56' E 009°40'711.7
2017-Mar-20 08:33N 38°59' E 009°32'1212.0
2017-Mar-20 07:33N 39°03' E 009°18'1111.1
2017-Mar-20 06:33N 39°09' E 009°06'4 3.6
2017-Mar-20 05:32N 39°13' E 009°04'0 0.0
2017-Mar-20 04:32N 39°13' E 009°04'0 0.0
2017-Mar-20 03:32N 39°13' E 009°04'0 0.0
2017-Mar-20 02:32N 39°13' E 009°04'0 0.0
2017-Mar-20 01:32N 39°13' E 009°04'0 0.0
2017-Mar-20 00:32N 39°13' E 009°04'0 0.0
2017-Mar-19 23:32N 39°13' E 009°04'0 0.0
2017-Mar-19 22:32N 39°13' E 009°04'0 0.0
2017-Mar-19 21:32N 39°13' E 009°04'0 0.0
2017-Mar-19 20:32N 39°13' E 009°04'0 0.0
2017-Mar-19 19:32N 39°13' E 009°04'0 0.0
2017-Mar-19 18:32N 39°13' E 009°04'0 0.0
2017-Mar-19 17:32N 39°13' E 009°04'0 0.0
2017-Mar-19 16:32N 39°13' E 009°04'0 0.0
2017-Mar-19 15:32N 39°13' E 009°04'0 0.0
2017-Mar-19 14:32N 39°13' E 009°04'0 0.0
2017-Mar-19 13:32N 39°13' E 009°04'0 0.0
2017-Mar-19 12:31N 39°13' E 009°04'0 0.0
2017-Mar-19 11:33N 39°13' E 009°04'7 6.6
2017-Mar-19 10:33N 39°06' E 009°07'1010.4
2017-Mar-19 09:33N 38°58' E 009°14'1010.3
2017-Mar-19 08:33N 38°49' E 009°21'40 9.5
2017-Mar-19 04:20N 38°15' E 009°49'9 9.8
2017-Mar-19 03:27N 38°08' E 009°55'10 9.9
2017-Mar-19 02:27N 37°59' E 010°02'9 9.9
2017-Mar-19 01:33N 37°52' E 010°08'4210.0
2017-Mar-18 21:18N 37°12' E 010°25'  
Track history (hours):
 
Tides and Currents Weather Stations Pressure Air Temp Water Temp Dewpoint Dewpoint Depression Visibility Wind Speed Wind Dir Waves Ship Positions

Heinz Schepers

Last reported at 2017-Mar-22 21:32 UTC. Time now 2017-Mar-22 22:07 UTC.
Position N 39°13' E 009°04'.

Length 101 m; draft 6.1 m.

Type: Cargo ship. MMSI: 304596000.

Date/timePositionNaut miles runAvg speedWind from/ knotsBaromVisibWave heightAir tempDewpointWater temp
2017-Mar-22 21:32N 39°13' E 009°04'0 0.0
2017-Mar-22 20:32N 39°13' E 009°04'0 0.0
2017-Mar-22 19:32N 39°13' E 009°04'0 0.0
2017-Mar-22 18:32N 39°13' E 009°04'0 0.0
2017-Mar-22 17:31N 39°13' E 009°04'0 0.0
2017-Mar-22 16:31N 39°13' E 009°04'0 0.0
2017-Mar-22 15:31N 39°13' E 009°04'0 0.0
2017-Mar-22 14:31N 39°13' E 009°04'0 0.0
2017-Mar-22 13:31N 39°13' E 009°04'0 0.3
2017-Mar-22 12:33N 39°13' E 009°04'3 2.8
2017-Mar-22 11:32N 39°10' E 009°05'0 0.0
2017-Mar-22 10:32N 39°10' E 009°05'0 0.0
2017-Mar-22 09:32N 39°10' E 009°05'0 0.0
2017-Mar-22 08:31N 39°10' E 009°05'0 0.0
2017-Mar-22 07:22N 39°10' E 009°05'0 0.0
2017-Mar-22 06:31N 39°10' E 009°05'0 0.0
2017-Mar-22 05:31N 39°10' E 009°05'3 2.6
2017-Mar-22 04:33N 39°09' E 009°08'10 9.6
2017-Mar-22 03:33N 39°04' E 009°19'9 8.6
2017-Mar-22 02:32N 39°00' E 009°29'9 8.6
2017-Mar-22 01:33N 38°56' E 009°38'107 8.8
2017-Mar-21 13:26N 38°15' E 011°44'17 9.3
2017-Mar-21 11:33N 38°08' E 012°05'10 9.9
2017-Mar-21 10:33N 38°05' E 012°17'10 9.8
2017-Mar-21 09:33N 38°02' E 012°28'2 2.1
2017-Mar-21 08:24N 38°01' E 012°31'0 0.0
2017-Mar-21 07:23N 38°01' E 012°31'0 0.0
2017-Mar-21 06:26N 38°01' E 012°31'0 0.0
2017-Mar-21 05:11N 38°01' E 012°31'0 0.0
2017-Mar-21 04:26N 38°01' E 012°31'0 0.0
2017-Mar-21 03:26N 38°01' E 012°31'0 0.0
2017-Mar-21 02:26N 38°01' E 012°31'0 0.0
2017-Mar-21 01:29N 38°01' E 012°31'0 0.0
2017-Mar-21 00:29N 38°01' E 012°31'0 0.0
2017-Mar-20 23:29N 38°01' E 012°31'0 0.0
2017-Mar-20 22:29N 38°01' E 012°31'1 1.5
2017-Mar-20 21:34N 38°00' E 012°30'1010.2
2017-Mar-20 20:33N 38°05' E 012°18'1111.3
2017-Mar-20 19:33N 38°08' E 012°04'1212.0
2017-Mar-20 18:33N 38°13' E 011°50'2811.9
2017-Mar-20 16:14N 38°24' E 011°18'811.5
2017-Mar-20 15:33N 38°27' E 011°09'3511.7
2017-Mar-20 12:33N 38°40' E 010°27'1211.7
2017-Mar-20 11:30N 38°45' E 010°13'1711.8
2017-Mar-20 10:04N 38°52' E 009°53'1111.8
2017-Mar-20 09:09N 38°56' E 009°40'711.7
2017-Mar-20 08:33N 38°59' E 009°32'1212.0
2017-Mar-20 07:33N 39°03' E 009°18'1111.1
2017-Mar-20 06:33N 39°09' E 009°06'4 3.6
2017-Mar-20 05:32N 39°13' E 009°04'0 0.0
2017-Mar-20 04:32N 39°13' E 009°04'0 0.0
2017-Mar-20 03:32N 39°13' E 009°04'0 0.0
2017-Mar-20 02:32N 39°13' E 009°04'0 0.0
2017-Mar-20 01:32N 39°13' E 009°04'0 0.0
2017-Mar-20 00:32N 39°13' E 009°04'0 0.0
2017-Mar-19 23:32N 39°13' E 009°04'0 0.0
2017-Mar-19 22:32N 39°13' E 009°04'0 0.0
2017-Mar-19 21:32N 39°13' E 009°04'0 0.0
2017-Mar-19 20:32N 39°13' E 009°04'0 0.0
2017-Mar-19 19:32N 39°13' E 009°04'0 0.0
2017-Mar-19 18:32N 39°13' E 009°04'0 0.0
2017-Mar-19 17:32N 39°13' E 009°04'0 0.0
2017-Mar-19 16:32N 39°13' E 009°04'0 0.0
2017-Mar-19 15:32N 39°13' E 009°04'0 0.0
2017-Mar-19 14:32N 39°13' E 009°04'0 0.0
2017-Mar-19 13:32N 39°13' E 009°04'0 0.0
2017-Mar-19 12:31N 39°13' E 009°04'0 0.0
2017-Mar-19 11:33N 39°13' E 009°04'7 6.6
2017-Mar-19 10:33N 39°06' E 009°07'1010.4
2017-Mar-19 09:33N 38°58' E 009°14'1010.3
2017-Mar-19 08:33N 38°49' E 009°21'40 9.5
2017-Mar-19 04:20N 38°15' E 009°49'9 9.8
2017-Mar-19 03:27N 38°08' E 009°55'10 9.9
2017-Mar-19 02:27N 37°59' E 010°02'9 9.9
2017-Mar-19 01:33N 37°52' E 010°08'4210.0
2017-Mar-18 21:18N 37°12' E 010°25'  

Dump ship's entire track history